Time;durP1;ratioP1;P1;durP2;ratioP2;P2;SDS_P1;SDS_P2;PMS_P1;PMS_P2;Temp;Humidity;BMP_temperature;BMP_pressure;BME280_temperature;BME280_humidity;BME280_pressure;Samples;Min_cycle;Max_cycle;Signal;HPM_P1;HPM_P2
2021/07/04 00:02:01;;;;;;;18.43;7.93;;;14.30;99.90;;;;;;4486008;27;655502;-71
2021/07/04 00:04:48;;;;;;;12.60;7.50;;;14.30;99.90;;;;;;4496338;27;655537;-71
2021/07/04 00:07:36;;;;;;;10.47;6.90;;;14.30;99.90;;;;;;4481654;27;654941;-71
2021/07/04 00:10:25;;;;;;;16.23;7.53;;;14.30;99.90;;;;;;4504458;27;654685;-71
2021/07/04 00:13:12;;;;;;;16.40;7.23;;;14.20;99.90;;;;;;4474532;27;655142;-71
2021/07/04 00:16:01;;;;;;;14.60;7.57;;;14.20;99.90;;;;;;4479457;27;654494;-70
2021/07/04 00:18:49;;;;;;;18.47;7.30;;;14.20;99.90;;;;;;4502392;27;654282;-70
2021/07/04 00:21:37;;;;;;;11.27;6.73;;;14.10;99.90;;;;;;4503851;27;656125;-70
2021/07/04 00:24:24;;;;;;;11.63;7.53;;;14.10;99.90;;;;;;4485544;27;654440;-70
2021/07/04 00:27:12;;;;;;;17.23;8.27;;;14.10;99.90;;;;;;4503934;27;654462;-70
2021/07/04 00:29:59;;;;;;;13.33;7.87;;;13.90;99.90;;;;;;4486438;27;654600;-70
2021/07/04 00:32:48;;;;;;;15.07;8.50;;;13.90;99.90;;;;;;4505528;27;655632;-70
2021/07/04 00:35:36;;;;;;;14.23;8.47;;;13.90;99.90;;;;;;4485784;27;654570;-70
2021/07/04 00:38:23;;;;;;;15.57;8.40;;;13.80;99.90;;;;;;4504282;27;654757;-71
2021/07/04 00:41:11;;;;;;;18.80;8.73;;;13.80;99.90;;;;;;4484974;27;654779;-70
2021/07/04 00:43:58;;;;;;;14.13;8.50;;;13.80;99.90;;;;;;4508505;27;654518;-71
2021/07/04 00:46:46;;;;;;;12.63;7.00;;;13.80;99.90;;;;;;4477336;27;654185;-70
2021/07/04 00:49:35;;;;;;;15.83;6.90;;;13.70;99.90;;;;;;4503629;27;654529;-71
2021/07/04 00:52:22;;;;;;;12.43;7.30;;;13.70;99.90;;;;;;4472518;27;654903;-70
2021/07/04 00:55:11;;;;;;;15.57;8.27;;;13.60;99.90;;;;;;4485027;27;654583;-70
2021/07/04 00:57:58;;;;;;;18.07;8.27;;;13.60;99.90;;;;;;4502327;27;654232;-71
2021/07/04 01:00:45;;;;;;;17.77;8.50;;;13.60;99.90;;;;;;4481831;27;655783;-70
2021/07/04 01:03:33;;;;;;;14.83;8.57;;;13.70;99.90;;;;;;4505166;27;655723;-70
2021/07/04 01:06:22;;;;;;;15.37;8.53;;;13.70;99.90;;;;;;4482671;27;655843;-70
2021/07/04 01:09:09;;;;;;;17.42;8.63;;;13.60;99.90;;;;;;4487389;27;655253;-70
2021/07/04 01:11:57;;;;;;;16.07;8.50;;;13.60;99.90;;;;;;4501915;27;657209;-70
2021/07/04 01:14:44;;;;;;;15.47;8.00;;;13.70;99.90;;;;;;4487139;27;655497;-70
2021/07/04 01:17:33;;;;;;;15.67;8.57;;;13.70;99.90;;;;;;4510882;27;656551;-70
2021/07/04 01:20:21;;;;;;;16.63;9.00;;;13.60;99.90;;;;;;4481542;27;655683;-70
2021/07/04 01:23:11;;;;;;;16.73;8.83;;;13.70;99.90;;;;;;4506556;27;655798;-70
2021/07/04 01:25:59;;;;;;;16.37;8.43;;;13.70;99.90;;;;;;4478971;27;655825;-71
2021/07/04 01:28:46;;;;;;;19.80;8.70;;;13.70;99.90;;;;;;4482974;27;657211;-71
2021/07/04 01:31:34;;;;;;;17.80;9.10;;;13.60;99.90;;;;;;4502047;27;655573;-70
2021/07/04 01:34:22;;;;;;;15.87;7.77;;;13.70;99.90;;;;;;4497618;27;656092;-70
2021/07/04 01:37:09;;;;;;;15.73;9.00;;;13.70;99.90;;;;;;4487031;27;655466;-70
2021/07/04 01:39:58;;;;;;;16.13;7.90;;;13.70;99.90;;;;;;4505987;27;656764;-70
2021/07/04 01:42:46;;;;;;;11.87;7.47;;;13.60;99.90;;;;;;4486931;27;655292;-70
2021/07/04 01:45:34;;;;;;;11.40;7.63;;;13.60;99.90;;;;;;4505920;27;655111;-70
2021/07/04 01:48:21;;;;;;;14.20;7.57;;;13.60;99.90;;;;;;4476459;27;656693;-70
2021/07/04 01:51:09;;;;;;;13.90;7.40;;;13.50;99.90;;;;;;4499733;27;655726;-70
2021/07/04 01:53:57;;;;;;;13.93;7.20;;;13.40;99.90;;;;;;4506333;27;656847;-70
2021/07/04 01:56:46;;;;;;;13.30;7.83;;;13.30;99.90;;;;;;4486951;27;655453;-70
2021/07/04 01:59:33;;;;;;;12.40;8.20;;;13.20;99.90;;;;;;4504614;27;655696;-71
2021/07/04 02:02:21;;;;;;;16.87;8.90;;;13.20;99.90;;;;;;4486907;27;655741;-71
2021/07/04 02:05:09;;;;;;;14.83;8.27;;;13.20;99.90;;;;;;4505483;27;655665;-71
2021/07/04 02:07:56;;;;;;;14.50;8.93;;;13.20;99.90;;;;;;4485899;27;656616;-70
2021/07/04 02:10:44;;;;;;;14.73;8.37;;;13.20;99.90;;;;;;4503522;27;655827;-70
2021/07/04 02:13:33;;;;;;;13.63;8.23;;;13.10;99.90;;;;;;4509725;27;655450;-71
2021/07/04 02:16:21;;;;;;;15.03;7.97;;;13.10;99.90;;;;;;4486040;27;655990;-70
2021/07/04 02:19:08;;;;;;;18.30;8.80;;;13.10;99.90;;;;;;4505725;27;655548;-70
2021/07/04 02:21:56;;;;;;;15.97;8.13;;;13.00;99.90;;;;;;4485935;27;655653;-70
2021/07/04 02:24:43;;;;;;;14.40;8.57;;;13.00;99.90;;;;;;4503550;27;656057;-70
2021/07/04 02:27:31;;;;;;;19.27;9.00;;;12.90;99.90;;;;;;4482042;27;655226;-70
2021/07/04 02:30:20;;;;;;;17.20;8.57;;;12.90;99.90;;;;;;4502095;27;655757;-70
2021/07/04 02:33:08;;;;;;;18.10;9.23;;;12.90;99.90;;;;;;4482267;27;657699;-70
2021/07/04 02:35:57;;;;;;;16.93;8.90;;;12.90;99.90;;;;;;4476978;27;656682;-70
2021/07/04 02:38:44;;;;;;;22.63;9.93;;;12.90;99.90;;;;;;4485682;27;655565;-70
2021/07/04 02:41:32;;;;;;;16.77;8.80;;;12.90;99.90;;;;;;4504979;27;655742;-70
2021/07/04 02:44:20;;;;;;;14.07;8.97;;;12.80;99.90;;;;;;4484873;27;655862;-70
2021/07/04 02:47:09;;;;;;;24.80;9.73;;;12.70;99.90;;;;;;4509247;27;656223;-70
2021/07/04 02:49:56;;;;;;;21.00;9.87;;;12.70;99.90;;;;;;4481834;27;656024;-70
2021/07/04 02:52:44;;;;;;;16.17;9.60;;;12.70;99.90;;;;;;4504403;27;655870;-70
2021/07/04 02:55:31;;;;;;;18.33;9.50;;;12.70;99.90;;;;;;4481777;27;656551;-70
2021/07/04 02:58:19;;;;;;;20.10;10.33;;;12.70;99.90;;;;;;4504470;27;655226;-70
2021/07/04 03:01:06;;;;;;;17.77;10.00;;;12.70;99.90;;;;;;4480832;27;657286;-70
2021/07/04 03:03:55;;;;;;;17.40;9.20;;;12.70;99.90;;;;;;4498485;27;656644;-70
2021/07/04 03:06:42;;;;;;;15.83;9.03;;;12.70;99.90;;;;;;4485563;27;656222;-70
2021/07/04 03:09:30;;;;;;;19.20;10.73;;;12.80;99.90;;;;;;4484855;27;656045;-70
2021/07/04 03:12:17;;;;;;;18.27;10.03;;;12.80;99.90;;;;;;4507650;27;657381;-70
2021/07/04 03:15:06;;;;;;;19.27;11.60;;;12.90;99.90;;;;;;4479326;27;656507;-70
2021/07/04 03:17:53;;;;;;;16.37;9.77;;;13.00;99.90;;;;;;4503124;27;656647;-70
2021/07/04 03:20:42;;;;;;;22.67;10.23;;;12.90;99.90;;;;;;4484889;27;655744;-70
2021/07/04 03:23:30;;;;;;;15.47;10.77;;;13.00;99.90;;;;;;4484367;27;656875;-70
2021/07/04 03:26:17;;;;;;;20.45;10.40;;;13.00;99.90;;;;;;4503681;27;655865;-70
2021/07/04 03:29:04;;;;;;;19.17;11.47;;;13.10;99.90;;;;;;4483824;27;656213;-70
2021/07/04 03:31:52;;;;;;;18.33;11.30;;;13.10;99.90;;;;;;4499541;27;657060;-70
2021/07/04 03:34:39;;;;;;;19.30;10.83;;;13.20;99.90;;;;;;4483659;27;656709;-70
2021/07/04 03:37:28;;;;;;;15.50;9.83;;;13.20;99.90;;;;;;4502958;27;657910;-70
2021/07/04 03:40:18;;;;;;;16.80;9.93;;;13.20;99.90;;;;;;4485162;27;655337;-70
2021/07/04 03:43:05;;;;;;;24.33;10.20;;;13.20;99.90;;;;;;4477653;27;655990;-70
2021/07/04 03:45:53;;;;;;;20.43;10.30;;;13.30;99.90;;;;;;4502506;27;656860;-70
2021/07/04 03:48:40;;;;;;;18.70;11.17;;;13.30;99.90;;;;;;4483347;27;656570;-70
2021/07/04 03:51:28;;;;;;;23.97;11.50;;;13.40;99.90;;;;;;4502219;27;656952;-70
2021/07/04 03:54:17;;;;;;;20.83;11.37;;;13.50;99.90;;;;;;4483517;27;657181;-70
2021/07/04 03:57:21;;;;;;;19.03;11.93;;;13.60;99.90;;;;;;4478580;27;656928;-70
2021/07/04 04:00:10;;;;;;;22.00;11.67;;;13.70;99.90;;;;;;4480468;27;657282;-70
2021/07/04 04:02:57;;;;;;;23.43;12.67;;;13.80;99.90;;;;;;4477469;27;656892;-70
2021/07/04 04:05:45;;;;;;;20.60;11.13;;;13.90;99.90;;;;;;4475717;27;656629;-70
2021/07/04 04:08:32;;;;;;;20.93;11.37;;;13.90;99.90;;;;;;4503665;27;657018;-70
2021/07/04 04:11:21;;;;;;;20.40;11.37;;;14.00;99.90;;;;;;4477286;27;656710;-70
2021/07/04 04:14:08;;;;;;;25.63;12.63;;;14.10;99.90;;;;;;4502628;27;656696;-70
2021/07/04 04:16:56;;;;;;;22.10;11.57;;;14.20;99.90;;;;;;4479163;27;657604;-70
2021/07/04 04:19:43;;;;;;;19.47;11.23;;;14.30;99.90;;;;;;4502528;27;656561;-70
2021/07/04 04:22:31;;;;;;;21.43;10.83;;;14.30;99.90;;;;;;4483041;27;656546;-70
2021/07/04 04:25:18;;;;;;;19.57;10.57;;;14.40;99.90;;;;;;4502433;27;657311;-70
2021/07/04 04:28:09;;;;;;;18.17;10.73;;;14.30;99.90;;;;;;4483884;27;656814;-70
2021/07/04 04:30:56;;;;;;;19.13;10.93;;;14.40;99.90;;;;;;4471351;27;657797;-70
2021/07/04 04:33:44;;;;;;;20.00;11.90;;;14.50;99.90;;;;;;4502310;27;656761;-70
2021/07/04 04:36:31;;;;;;;19.47;11.17;;;14.60;99.90;;;;;;4479511;27;658007;-70
2021/07/04 04:39:20;;;;;;;21.73;11.03;;;14.70;99.90;;;;;;4498996;27;656532;-70
2021/07/04 04:42:08;;;;;;;20.73;10.70;;;14.90;99.90;;;;;;4497693;27;657293;-70
2021/07/04 04:44:57;;;;;;;17.50;10.33;;;15.00;99.90;;;;;;4480621;27;656844;-70
2021/07/04 04:47:44;;;;;;;17.47;10.80;;;15.10;99.90;;;;;;4491208;27;656425;-70
2021/07/04 04:50:32;;;;;;;21.07;10.97;;;15.20;99.90;;;;;;4505743;27;658257;-71
2021/07/04 04:53:19;;;;;;;23.07;11.43;;;15.30;99.90;;;;;;4486520;27;656735;-70
2021/07/04 04:56:07;;;;;;;27.53;12.70;;;15.50;99.90;;;;;;4503773;27;657911;-70
2021/07/04 04:58:55;;;;;;;24.43;12.90;;;15.60;99.90;;;;;;4486271;27;656799;-70
2021/07/04 05:01:44;;;;;;;30.23;13.03;;;15.70;99.90;;;;;;4507902;27;656317;-70
2021/07/04 05:04:32;;;;;;;25.30;14.77;;;15.90;99.90;;;;;;4483465;27;657225;-70
2021/07/04 05:07:22;;;;;;;27.30;15.40;;;16.00;99.90;;;;;;4495135;27;657078;-70
2021/07/04 05:10:11;;;;;;;32.63;16.43;;;16.00;99.90;;;;;;4486973;27;656404;-70
2021/07/04 05:12:59;;;;;;;28.83;15.97;;;16.10;99.90;;;;;;4496816;27;656281;-70
2021/07/04 05:15:46;;;;;;;30.07;16.03;;;16.10;99.90;;;;;;4486179;27;657799;-70
2021/07/04 05:18:36;;;;;;;29.70;16.57;;;16.20;99.90;;;;;;4494929;27;657175;-70
2021/07/04 05:21:24;;;;;;;30.93;15.20;;;16.30;99.90;;;;;;4505091;27;656369;-70
2021/07/04 05:24:12;;;;;;;23.57;14.30;;;16.40;99.90;;;;;;4475549;27;656823;-70
2021/07/04 05:26:59;;;;;;;26.30;13.50;;;16.50;99.90;;;;;;4483372;27;656582;-71
2021/07/04 05:29:47;;;;;;;24.60;13.37;;;16.70;99.90;;;;;;4498263;27;658102;-70
2021/07/04 05:32:34;;;;;;;23.03;12.33;;;16.80;99.90;;;;;;4486237;27;656875;-70
2021/07/04 05:35:23;;;;;;;18.67;11.40;;;16.90;99.90;;;;;;4491896;27;657560;-70
2021/07/04 05:38:17;;;;;;;20.17;10.87;;;17.10;99.90;;;;;;4484772;27;656400;-70
2021/07/04 05:41:05;;;;;;;23.33;10.40;;;17.30;99.90;;;;;;4485829;27;656429;-70
2021/07/04 05:43:53;;;;;;;24.00;10.80;;;17.40;99.90;;;;;;4504760;27;656991;-70
2021/07/04 05:46:40;;;;;;;19.57;11.50;;;17.50;99.90;;;;;;4477423;27;656888;-70
2021/07/04 05:49:28;;;;;;;22.23;9.37;;;17.60;99.90;;;;;;4497792;27;657599;-70
2021/07/04 05:52:17;;;;;;;20.53;9.47;;;17.70;99.90;;;;;;4482938;27;655631;-70
2021/07/04 05:55:05;;;;;;;26.47;10.43;;;17.80;99.90;;;;;;4481997;27;655698;-71
2021/07/04 05:57:53;;;;;;;21.17;10.90;;;18.00;99.90;;;;;;4504049;27;656518;-71
2021/07/04 06:00:40;;;;;;;21.33;12.57;;;18.00;99.90;;;;;;4485410;27;656527;-71
2021/07/04 06:03:28;;;;;;;20.97;12.63;;;18.10;99.90;;;;;;4504437;27;657269;-70
2021/07/04 06:06:16;;;;;;;21.17;13.07;;;18.20;99.90;;;;;;4480183;27;657263;-71
2021/07/04 06:09:05;;;;;;;25.77;12.60;;;18.20;99.90;;;;;;4504059;27;656910;-70
2021/07/04 06:11:52;;;;;;;27.60;14.90;;;18.30;99.90;;;;;;4482058;27;658231;-71
2021/07/04 06:14:54;;;;;;;25.57;13.93;;;18.40;99.90;;;;;;4485616;27;656636;-71
2021/07/04 06:17:42;;;;;;;24.37;13.83;;;18.40;99.90;;;;;;4481124;27;656667;-70
2021/07/04 06:20:31;;;;;;;22.53;12.60;;;18.40;99.90;;;;;;4483276;27;656366;-70
2021/07/04 06:23:27;;;;;;;24.70;13.10;;;18.50;99.90;;;;;;4497401;27;657039;-70
2021/07/04 06:26:17;;;;;;;28.40;13.70;;;18.70;99.90;;;;;;4462221;27;657132;-70
2021/07/04 06:29:04;;;;;;;26.13;12.47;;;18.70;99.90;;;;;;4481898;27;656750;-70
2021/07/04 06:31:52;;;;;;;26.83;13.50;;;18.70;99.90;;;;;;4503513;27;657564;-70
2021/07/04 06:34:39;;;;;;;26.33;10.13;;;18.80;99.90;;;;;;4485278;27;656742;-70
2021/07/04 06:37:27;;;;;;;18.97;8.80;;;18.90;99.90;;;;;;4501899;27;656897;-71
2021/07/04 06:40:15;;;;;;;17.63;8.73;;;19.10;99.90;;;;;;4471849;27;655286;-71
2021/07/04 06:43:04;;;;;;;15.87;8.57;;;19.20;99.90;;;;;;4505048;27;656018;-70
2021/07/04 06:45:53;;;;;;;16.37;8.23;;;19.30;99.90;;;;;;4475771;27;656519;-71
2021/07/04 06:48:41;;;;;;;19.50;7.70;;;19.40;99.90;;;;;;4481946;27;656679;-70
2021/07/04 06:51:30;;;;;;;14.57;6.63;;;19.30;99.90;;;;;;4504767;27;655762;-71
2021/07/04 06:54:17;;;;;;;13.03;6.53;;;19.50;99.90;;;;;;4481442;27;656404;-70
2021/07/04 07:00:09;;;;;;;15.40;6.43;;;19.60;99.90;;;;;;4457881;27;655734;-71
2021/07/04 07:02:57;;;;;;;14.27;7.27;;;19.80;99.90;;;;;;4461220;27;656222;-70
2021/07/04 07:05:45;;;;;;;15.83;7.23;;;19.80;99.90;;;;;;4485263;27;655588;-69
2021/07/04 07:08:32;;;;;;;16.30;7.20;;;19.80;99.90;;;;;;4501062;27;655778;-72
2021/07/04 07:11:20;;;;;;;12.40;7.33;;;19.90;99.90;;;;;;4485173;27;655514;-70
2021/07/04 07:14:08;;;;;;;15.10;7.27;;;20.00;99.90;;;;;;4502683;27;656407;-70
2021/07/04 07:16:57;;;;;;;14.57;6.50;;;20.10;99.90;;;;;;4481420;27;655774;-71
2021/07/04 07:19:44;;;;;;;12.87;6.70;;;20.40;99.90;;;;;;4483766;27;655939;-70
2021/07/04 07:22:53;;;;;;;9.80;6.00;;;20.50;99.90;;;;;;4507687;27;656487;-70
2021/07/04 07:25:41;;;;;;;8.50;6.00;;;20.60;99.90;;;;;;4447696;27;654887;-71
2021/07/04 07:28:29;;;;;;;9.83;5.90;;;20.80;99.90;;;;;;4504225;27;655038;-71
2021/07/04 07:31:16;;;;;;;9.17;5.10;;;21.20;99.90;;;;;;4482031;27;655608;-70
2021/07/04 07:34:05;;;;;;;11.30;6.03;;;21.40;99.90;;;;;;4504288;27;654513;-72
2021/07/04 07:36:53;;;;;;;14.00;6.00;;;21.30;99.90;;;;;;4481027;27;656118;-71
2021/07/04 07:39:40;;;;;;;10.07;5.77;;;21.00;99.90;;;;;;4484979;27;655363;-70
2021/07/04 07:42:28;;;;;;;12.50;5.70;;;20.80;99.90;;;;;;4503359;27;655598;-71
2021/07/04 07:45:16;;;;;;;8.50;5.47;;;20.50;99.90;;;;;;4466192;27;655829;-70
2021/07/04 07:48:04;;;;;;;6.33;5.23;;;20.50;99.90;;;;;;4504849;27;655465;-70
2021/07/04 07:50:53;;;;;;;8.57;5.47;;;20.60;99.90;;;;;;4485842;27;656347;-71
2021/07/04 07:53:41;;;;;;;8.60;5.57;;;20.60;99.90;;;;;;4481199;27;654519;-70
2021/07/04 07:56:28;;;;;;;12.27;5.60;;;20.60;99.90;;;;;;4508255;27;654408;-71
2021/07/04 07:59:16;;;;;;;8.93;5.90;;;20.80;99.90;;;;;;4484582;27;655806;-70
2021/07/04 08:02:04;;;;;;;8.33;5.10;;;21.30;99.90;;;;;;4505343;27;654981;-70
2021/07/04 08:04:52;;;;;;;7.63;4.50;;;21.70;99.90;;;;;;4482765;27;655479;-71
2021/07/04 08:07:42;;;;;;;9.30;4.73;;;22.00;99.90;;;;;;4486795;27;654725;-70
2021/07/04 08:10:30;;;;;;;7.57;5.00;;;22.40;99.90;;;;;;4486261;27;654550;-71
2021/07/04 08:13:18;;;;;;;8.20;4.70;;;22.30;99.90;;;;;;4504581;27;655996;-71
2021/07/04 08:16:06;;;;;;;7.30;5.07;;;21.70;99.90;;;;;;4484792;27;654373;-70
2021/07/04 08:18:53;;;;;;;7.03;4.40;;;21.40;99.90;;;;;;4505536;27;654609;-70
2021/07/04 08:21:41;;;;;;;10.40;4.57;;;21.40;99.90;;;;;;4486537;27;654752;-71
2021/07/04 08:24:30;;;;;;;7.00;4.53;;;21.60;99.90;;;;;;4503620;27;655685;-70
2021/07/04 08:27:18;;;;;;;6.67;4.50;;;21.70;99.90;;;;;;4485625;27;654751;-70
2021/07/04 08:30:06;;;;;;;9.80;4.13;;;21.90;99.90;;;;;;4484959;27;654915;-71
2021/07/04 08:32:54;;;;;;;6.30;4.50;;;22.30;99.90;;;;;;4503949;27;654396;-71
2021/07/04 08:35:41;;;;;;;6.17;4.20;;;23.00;99.90;;;;;;4481166;27;655533;-72
2021/07/04 08:38:29;;;;;;;5.47;4.20;;;23.10;99.90;;;;;;4503833;27;654799;-70
2021/07/04 08:41:18;;;;;;;7.60;4.30;;;23.10;99.90;;;;;;4481087;27;655756;-71
2021/07/04 08:44:06;;;;;;;5.87;4.33;;;23.00;99.90;;;;;;4485016;27;655111;-72
2021/07/04 08:46:54;;;;;;;6.40;4.00;;;22.90;99.90;;;;;;4503830;27;654666;-72
2021/07/04 08:49:41;;;;;;;5.20;3.97;;;23.10;99.90;;;;;;4481201;27;655130;-72
2021/07/04 08:52:29;;;;;;;6.37;4.60;;;23.30;99.90;;;;;;4503999;27;655594;-70
2021/07/04 08:55:18;;;;;;;5.87;3.97;;;23.20;99.90;;;;;;4482096;27;655740;-72
2021/07/04 08:58:07;;;;;;;7.63;4.20;;;23.00;99.90;;;;;;4485885;27;655179;-70
2021/07/04 09:01:11;;;;;;;9.57;4.63;;;22.90;99.90;;;;;;4484185;27;655220;-70
2021/07/04 09:04:11;;;;;;;6.73;4.27;;;22.90;99.90;;;;;;4457408;28;654387;-70
2021/07/04 09:07:00;;;;;;;6.00;4.17;;;23.10;99.90;;;;;;4462556;28;654259;-70
2021/07/04 09:09:56;;;;;;;5.63;4.43;;;23.80;99.90;;;;;;4462370;28;654639;-70
2021/07/04 09:12:44;;;;;;;5.67;4.30;;;24.10;99.90;;;;;;4463456;28;655428;-71
2021/07/04 09:15:33;;;;;;;5.17;3.97;;;23.70;99.90;;;;;;4465818;28;655058;-72
2021/07/04 09:18:21;;;;;;;6.07;3.97;;;23.20;99.90;;;;;;4464403;28;655019;-71
2021/07/04 09:21:22;;;;;;;8.40;4.00;;;23.20;99.90;;;;;;4484780;28;654759;-71
2021/07/04 09:24:22;;;;;;;6.23;3.83;;;23.80;99.90;;;;;;4445703;27;654655;-71
2021/07/04 09:27:12;;;;;;;7.57;4.18;;;24.10;99.90;;;;;;4443909;27;654871;-72
2021/07/04 09:30:00;;;;;;;6.72;4.10;;;24.40;99.90;;;;;;4471684;27;655848;-70
2021/07/04 09:32:49;;;;;;;6.93;4.07;;;24.40;99.90;;;;;;4490615;27;655113;-72
2021/07/04 09:35:37;;;;;;;5.97;3.80;;;24.00;99.90;;;;;;4462403;27;655424;-71
2021/07/04 09:38:26;;;;;;;7.63;4.17;;;23.80;99.90;;;;;;4483671;27;654409;-72
2021/07/04 09:41:14;;;;;;;7.37;3.90;;;23.90;99.90;;;;;;4506574;27;654853;-71
2021/07/04 09:44:02;;;;;;;6.18;4.15;;;24.20;99.90;;;;;;4481918;27;655321;-72
2021/07/04 09:47:09;;;;;;;4.68;3.80;;;23.90;99.90;;;;;;4481062;27;657012;-69
2021/07/04 09:50:05;;;;;;;5.07;3.63;;;23.90;99.90;;;;;;4460524;27;654977;-73
2021/07/04 09:52:59;;;;;;;6.80;3.92;;;23.60;99.90;;;;;;4477464;27;654618;-72
2021/07/04 09:55:50;;;;;;;8.37;4.60;;;23.80;99.90;;;;;;4460720;27;654996;-71
2021/07/04 09:58:38;;;;;;;4.43;4.00;;;24.30;99.90;;;;;;4479419;27;655120;-71
2021/07/04 10:01:35;;;;;;;7.97;4.32;;;24.60;99.90;;;;;;4486393;27;654966;-71
2021/07/04 10:04:26;;;;;;;7.30;4.40;;;25.10;99.90;;;;;;4480276;27;654710;-68
2021/07/04 10:07:15;;;;;;;5.30;3.75;;;24.80;99.90;;;;;;4482703;27;654704;-69
2021/07/04 10:10:07;;;;;;;9.00;4.47;;;24.70;99.90;;;;;;4478357;27;655402;-68
2021/07/04 10:12:55;;;;;;;7.03;4.47;;;24.70;99.90;;;;;;4481425;27;654365;-68
2021/07/04 10:15:43;;;;;;;6.45;4.72;;;24.90;99.90;;;;;;4506589;27;654103;-67
2021/07/04 10:18:31;;;;;;;7.25;4.18;;;25.20;99.90;;;;;;4482722;27;654690;-67
2021/07/04 10:21:20;;;;;;;8.65;4.80;;;25.30;99.90;;;;;;4506897;27;654761;-68
2021/07/04 10:24:09;;;;;;;5.32;4.57;;;24.90;99.90;;;;;;4483436;27;654956;-68
2021/07/04 10:26:57;;;;;;;7.72;4.45;;;24.50;99.90;;;;;;4483637;27;655533;-68
2021/07/04 10:29:54;;;;;;;7.88;3.60;;;24.60;99.90;;;;;;4489516;27;654960;-68
2021/07/04 10:33:04;;;;;;;6.35;4.40;;;25.20;99.90;;;;;;4453682;27;655258;-68
2021/07/04 10:36:13;;;;;;;6.35;3.95;;;25.50;99.90;;;;;;4452368;27;655391;-68
2021/07/04 10:39:02;;;;;;;5.47;4.32;;;25.90;99.90;;;;;;4459909;27;655255;-68
2021/07/04 10:41:55;;;;;;;11.15;3.88;;;26.00;99.90;;;;;;4481880;27;654873;-68
2021/07/04 10:44:43;;;;;;;6.40;4.40;;;25.60;99.90;;;;;;4482417;27;656500;-70
2021/07/04 10:47:33;;;;;;;6.55;3.90;;;25.00;99.90;;;;;;4487861;27;654627;-69
2021/07/04 10:50:21;;;;;;;6.32;4.00;;;25.40;99.90;;;;;;4487667;27;654640;-68
2021/07/04 10:53:09;;;;;;;5.75;3.92;;;26.10;99.90;;;;;;4506178;27;654520;-68
2021/07/04 10:55:56;;;;;;;6.10;4.65;;;26.40;99.90;;;;;;4475134;27;655925;-68
2021/07/04 10:59:03;;;;;;;5.47;4.18;;;26.30;99.90;;;;;;4505909;27;654202;-69
2021/07/04 11:01:55;;;;;;;6.40;4.25;;;25.90;99.90;;;;;;4478370;27;654781;-69
2021/07/04 11:04:55;;;;;;;10.85;4.25;;;26.40;99.90;;;;;;4474943;27;655130;-70
2021/07/04 11:08:04;;;;;;;5.70;4.13;;;26.40;99.90;;;;;;4485112;27;655171;-69
2021/07/04 11:10:57;;;;;;;8.50;4.30;;;26.70;99.90;;;;;;4456717;27;655158;-69
2021/07/04 11:13:49;;;;;;;5.55;4.10;;;26.40;99.80;;;;;;4464231;27;654267;-68
2021/07/04 11:16:38;;;;;;;8.20;4.20;;;26.60;99.20;;;;;;4486190;27;655224;-68
2021/07/04 11:19:25;;;;;;;4.88;3.80;;;26.50;98.20;;;;;;4478258;27;654422;-68
2021/07/04 11:22:13;;;;;;;8.18;4.13;;;26.80;95.40;;;;;;4499160;27;654797;-68
2021/07/04 11:25:15;;;;;;;8.95;4.05;;;27.00;95.50;;;;;;4485244;27;654475;-68
2021/07/04 11:28:21;;;;;;;5.57;4.00;;;26.70;95.00;;;;;;4478902;27;655731;-68
2021/07/04 11:31:31;;;;;;;4.95;3.63;;;25.90;95.60;;;;;;4478362;27;654669;-69
2021/07/04 11:34:20;;;;;;;5.22;3.75;;;25.80;97.50;;;;;;4476926;27;654721;-69
2021/07/04 11:37:08;;;;;;;6.35;4.25;;;25.90;96.90;;;;;;4473694;27;655039;-68
2021/07/04 11:39:59;;;;;;;5.63;4.03;;;26.10;96.80;;;;;;4486549;27;654931;-68
2021/07/04 11:42:47;;;;;;;4.80;3.95;;;26.40;97.70;;;;;;4481232;27;655224;-68
2021/07/04 11:45:35;;;;;;;6.18;4.00;;;26.80;96.80;;;;;;4486125;27;654760;-69
2021/07/04 11:48:23;;;;;;;9.88;4.07;;;26.70;96.90;;;;;;4497254;27;655536;-68
2021/07/04 11:51:12;;;;;;;6.47;4.00;;;26.40;97.30;;;;;;4481793;27;655042;-68
2021/07/04 11:54:02;;;;;;;5.45;4.10;;;25.90;95.20;;;;;;4486121;27;654914;-68
2021/07/04 11:56:51;;;;;;;5.78;4.30;;;25.60;97.10;;;;;;4475997;27;654616;-69
2021/07/04 11:59:39;;;;;;;9.27;4.25;;;25.40;98.10;;;;;;4503688;27;655063;-69
2021/07/04 12:02:27;;;;;;;7.78;4.22;;;25.40;98.90;;;;;;4486400;27;655724;-69
2021/07/04 12:05:15;;;;;;;6.85;4.00;;;25.50;99.90;;;;;;4489765;27;654156;-68
2021/07/04 12:08:05;;;;;;;6.38;4.50;;;26.00;99.90;;;;;;4503203;27;654673;-68
2021/07/04 12:10:54;;;;;;;5.03;3.67;;;26.30;98.50;;;;;;4463758;27;655790;-68
2021/07/04 12:13:43;;;;;;;9.25;4.07;;;26.60;97.20;;;;;;4482183;27;655824;-69
2021/07/04 12:16:38;;;;;;;7.07;4.20;;;26.50;93.80;;;;;;4478240;27;654662;-68
2021/07/04 12:19:30;;;;;;;5.80;3.95;;;25.90;96.60;;;;;;4453835;27;654930;-68
2021/07/04 12:22:20;;;;;;;4.32;3.85;;;26.30;97.20;;;;;;4481387;27;655274;-68
2021/07/04 12:25:19;;;;;;;5.68;4.10;;;26.80;95.90;;;;;;4481880;27;654977;-68
2021/07/04 12:28:08;;;;;;;5.60;4.05;;;27.10;94.50;;;;;;4473584;27;655168;-69
2021/07/04 12:30:56;;;;;;;9.90;4.15;;;27.10;92.10;;;;;;4480954;27;654726;-69
2021/07/04 12:33:44;;;;;;;8.68;4.53;;;27.20;93.10;;;;;;4504665;27;654247;-68
2021/07/04 12:36:33;;;;;;;4.68;3.95;;;27.20;92.50;;;;;;4481983;27;655197;-68
2021/07/04 12:39:20;;;;;;;6.88;4.63;;;27.40;93.30;;;;;;4481429;27;654367;-68
2021/07/04 12:42:24;;;;;;;6.95;4.57;;;27.50;94.40;;;;;;4502565;27;654209;-68
2021/07/04 12:45:13;;;;;;;6.45;4.15;;;27.60;94.80;;;;;;4458771;27;654991;-68
2021/07/04 12:48:02;;;;;;;6.05;4.35;;;27.60;95.50;;;;;;4485094;27;654709;-68
2021/07/04 12:50:56;;;;;;;9.45;4.07;;;27.30;95.60;;;;;;4478458;27;654313;-68
2021/07/04 12:53:44;;;;;;;6.70;4.25;;;27.20;94.00;;;;;;4482194;27;654690;-69
2021/07/04 12:56:33;;;;;;;6.25;4.93;;;27.10;95.10;;;;;;4474591;27;655778;-68
2021/07/04 13:00:14;;;;;;;8.20;4.35;;;27.80;94.40;;;;;;4487622;27;654775;-68
2021/07/04 13:03:03;;;;;;;5.28;3.72;;;28.30;93.70;;;;;;4417168;28;655140;-68
2021/07/04 13:05:51;;;;;;;4.80;3.78;;;29.10;91.90;;;;;;4427979;28;655767;-68
2021/07/04 13:08:39;;;;;;;3.97;3.50;;;29.10;86.60;;;;;;4439030;28;655470;-68
2021/07/04 13:11:26;;;;;;;5.82;3.78;;;28.30;81.60;;;;;;4419998;28;655556;-68
2021/07/04 13:14:14;;;;;;;9.43;4.93;;;28.00;87.80;;;;;;4444935;28;654379;-68
2021/07/04 13:17:02;;;;;;;10.27;4.90;;;27.60;87.50;;;;;;4445992;28;655650;-68
2021/07/04 13:19:52;;;;;;;8.38;4.78;;;27.80;90.50;;;;;;4421210;28;656133;-68
2021/07/04 13:22:40;;;;;;;7.70;5.57;;;28.20;88.00;;;;;;4419047;28;654430;-68
2021/07/04 13:25:29;;;;;;;7.13;5.28;;;28.60;90.30;;;;;;4444266;28;655039;-68
2021/07/04 13:28:17;;;;;;;10.18;7.15;;;28.60;89.80;;;;;;4418194;28;655100;-68
2021/07/04 13:31:04;;;;;;;6.88;4.93;;;28.30;87.40;;;;;;4422197;28;656671;-68
2021/07/04 13:33:52;;;;;;;8.27;4.50;;;28.10;89.70;;;;;;4439437;28;655414;-68
2021/07/04 13:36:53;;;;;;;7.22;4.15;;;27.90;89.10;;;;;;4429094;28;654553;-69
2021/07/04 13:40:00;;;;;;;6.68;4.63;;;27.70;90.90;;;;;;4432941;27;654353;-68
2021/07/04 13:42:48;;;;;;;10.35;4.60;;;27.80;90.60;;;;;;4479076;27;654247;-70
2021/07/04 13:45:38;;;;;;;8.73;4.60;;;28.30;90.60;;;;;;4483373;27;655175;-68
2021/07/04 13:48:27;;;;;;;9.68;4.50;;;28.50;87.30;;;;;;4488509;27;654223;-70
2021/07/04 13:52:07;;;;;;;7.07;4.28;;;28.30;88.70;;;;;;4488310;27;654494;-68
2021/07/04 13:55:25;;;;;;;8.27;4.32;;;28.10;87.40;;;;;;4447156;27;654506;-68
2021/07/04 13:58:12;;;;;;;4.82;4.00;;;28.10;90.40;;;;;;4479547;27;655282;-69
2021/07/04 14:01:03;;;;;;;5.70;4.20;;;28.30;85.60;;;;;;4484450;27;654319;-68
2021/07/04 14:03:52;;;;;;;12.70;4.70;;;28.00;85.70;;;;;;4478197;27;655185;-69
2021/07/04 14:06:40;;;;;;;6.28;4.10;;;28.30;90.60;;;;;;4484078;27;655523;-68
2021/07/04 14:09:27;;;;;;;8.90;4.65;;;28.70;85.70;;;;;;4510451;27;655244;-68
2021/07/04 14:12:16;;;;;;;5.80;4.10;;;29.00;85.50;;;;;;4487459;27;654689;-68
2021/07/04 14:15:04;;;;;;;5.50;3.65;;;29.10;81.70;;;;;;4499313;27;654613;-68
2021/07/04 14:17:52;;;;;;;7.47;3.65;;;28.60;81.50;;;;;;4487398;27;654689;-68
2021/07/04 14:20:40;;;;;;;4.82;3.58;;;28.50;78.40;;;;;;4487774;27;654786;-68
2021/07/04 14:23:28;;;;;;;6.78;3.97;;;28.30;79.10;;;;;;4501185;27;655152;-68
2021/07/04 14:26:16;;;;;;;7.40;3.97;;;28.10;80.30;;;;;;4487319;27;654213;-68